sensor_id;sensor_type;location;lat;lon;timestamp;pressure;altitude;pressure_sealevel;temperature;humidity
9261;BME280;4667;42.726;23.252;2023-07-09T00:00:39;95636.09;;;18.78;51.52
9261;BME280;4667;42.726;23.252;2023-07-09T00:03:09;95639.88;;;18.77;51.84
9261;BME280;4667;42.726;23.252;2023-07-09T00:05:37;95630.34;;;18.70;52.00
9261;BME280;4667;42.726;23.252;2023-07-09T00:08:04;95627.47;;;18.62;52.50
9261;BME280;4667;42.726;23.252;2023-07-09T00:10:31;95564.28;;;18.14;52.53
9261;BME280;4667;42.726;23.252;2023-07-09T00:12:59;95625.66;;;18.57;52.68
9261;BME280;4667;42.726;23.252;2023-07-09T00:15:26;95629.25;;;18.48;53.17
9261;BME280;4667;42.726;23.252;2023-07-09T00:17:54;95620.75;;;18.45;53.12
9261;BME280;4667;42.726;23.252;2023-07-09T00:20:21;95624.28;;;18.41;53.43
9261;BME280;4667;42.726;23.252;2023-07-09T00:22:48;95622.19;;;18.38;53.64
9261;BME280;4667;42.726;23.252;2023-07-09T00:25:18;95625.13;;;18.36;53.55
9261;BME280;4667;42.726;23.252;2023-07-09T00:27:45;95627.66;;;18.28;53.54
9261;BME280;4667;42.726;23.252;2023-07-09T00:30:16;95602.44;;;18.15;53.31
9261;BME280;4667;42.726;23.252;2023-07-09T00:32:44;95605.84;;;18.21;53.09
9261;BME280;4667;42.726;23.252;2023-07-09T00:35:12;95608.53;;;18.21;52.99
9261;BME280;4667;42.726;23.252;2023-07-09T00:37:41;95621.19;;;18.34;52.79
9261;BME280;4667;42.726;23.252;2023-07-09T00:40:14;95566.28;;;18.04;52.69
9261;BME280;4667;42.726;23.252;2023-07-09T00:42:44;95616.09;;;18.32;52.39
9261;BME280;4667;42.726;23.252;2023-07-09T00:45:18;95588.31;;;18.14;52.25
9261;BME280;4667;42.726;23.252;2023-07-09T00:47:48;95609.19;;;18.31;52.10
9261;BME280;4667;42.726;23.252;2023-07-09T00:50:36;95586.53;;;18.29;52.09
9261;BME280;4667;42.726;23.252;2023-07-09T00:53:11;95601.09;;;18.36;52.08
9261;BME280;4667;42.726;23.252;2023-07-09T00:55:45;95594.75;;;18.32;51.74
9261;BME280;4667;42.726;23.252;2023-07-09T00:58:14;95555.63;;;18.04;51.58
9261;BME280;4667;42.726;23.252;2023-07-09T01:00:44;95606.25;;;18.33;51.81
9261;BME280;4667;42.726;23.252;2023-07-09T01:03:18;95601.09;;;18.36;51.52
9261;BME280;4667;42.726;23.252;2023-07-09T01:05:49;95598.38;;;18.41;51.29
9261;BME280;4667;42.726;23.252;2023-07-09T01:08:18;95584.88;;;18.33;51.41
9261;BME280;4667;42.726;23.252;2023-07-09T01:10:45;95602.63;;;18.42;51.62
9261;BME280;4667;42.726;23.252;2023-07-09T01:13:12;95586.41;;;18.39;51.74
9261;BME280;4667;42.726;23.252;2023-07-09T01:15:39;95591.44;;;18.40;51.44
9261;BME280;4667;42.726;23.252;2023-07-09T01:18:06;95568.56;;;18.34;51.46
9261;BME280;4667;42.726;23.252;2023-07-09T01:20:34;95549.59;;;18.17;51.59
9261;BME280;4667;42.726;23.252;2023-07-09T01:23:02;95583.44;;;18.40;51.56
9261;BME280;4667;42.726;23.252;2023-07-09T01:25:30;95586.34;;;18.44;51.43
9261;BME280;4667;42.726;23.252;2023-07-09T01:27:57;95557.78;;;18.21;51.80
9261;BME280;4667;42.726;23.252;2023-07-09T01:30:27;95533.53;;;17.98;51.49
9261;BME280;4667;42.726;23.252;2023-07-09T01:32:57;95576.28;;;18.36;51.84
9261;BME280;4667;42.726;23.252;2023-07-09T01:35:25;95551.38;;;18.22;51.49
9261;BME280;4667;42.726;23.252;2023-07-09T01:37:54;95585.63;;;18.38;51.44
9261;BME280;4667;42.726;23.252;2023-07-09T01:40:24;95538.75;;;18.08;51.74
9261;BME280;4667;42.726;23.252;2023-07-09T01:42:53;95587.03;;;18.31;51.76
9261;BME280;4667;42.726;23.252;2023-07-09T01:45:20;95594.31;;;18.25;51.99
9261;BME280;4667;42.726;23.252;2023-07-09T01:47:47;95601.75;;;18.28;51.77
9261;BME280;4667;42.726;23.252;2023-07-09T01:50:14;95598.00;;;18.29;51.95
9261;BME280;4667;42.726;23.252;2023-07-09T01:52:42;95583.25;;;18.13;52.03
9261;BME280;4667;42.726;23.252;2023-07-09T01:55:10;95603.72;;;18.23;51.93
9261;BME280;4667;42.726;23.252;2023-07-09T01:57:39;95586.66;;;18.18;51.86
9261;BME280;4667;42.726;23.252;2023-07-09T02:00:08;95600.19;;;18.27;51.79
9261;BME280;4667;42.726;23.252;2023-07-09T02:02:36;95597.72;;;18.31;51.75
9261;BME280;4667;42.726;23.252;2023-07-09T02:05:04;95582.19;;;18.14;52.11
9261;BME280;4667;42.726;23.252;2023-07-09T02:07:31;95591.88;;;18.29;51.66
9261;BME280;4667;42.726;23.252;2023-07-09T02:09:58;95605.16;;;18.34;51.86
9261;BME280;4667;42.726;23.252;2023-07-09T02:12:25;95606.38;;;18.41;52.77
9261;BME280;4667;42.726;23.252;2023-07-09T02:14:53;95600.31;;;18.36;53.88
9261;BME280;4667;42.726;23.252;2023-07-09T02:17:20;95602.56;;;18.29;53.37
9261;BME280;4667;42.726;23.252;2023-07-09T02:19:46;95606.88;;;18.25;54.48
9261;BME280;4667;42.726;23.252;2023-07-09T02:22:13;95591.53;;;18.11;54.44
9261;BME280;4667;42.726;23.252;2023-07-09T02:24:40;95606.44;;;18.17;55.27
9261;BME280;4667;42.726;23.252;2023-07-09T02:27:08;95439.22;;;16.93;55.86
9261;BME280;4667;42.726;23.252;2023-07-09T02:29:37;95612.50;;;17.99;56.00
9261;BME280;4667;42.726;23.252;2023-07-09T02:32:07;95602.63;;;17.76;56.81
9261;BME280;4667;42.726;23.252;2023-07-09T02:34:34;95602.63;;;17.76;56.66
9261;BME280;4667;42.726;23.252;2023-07-09T02:37:01;95616.63;;;17.62;57.23
9261;BME280;4667;42.726;23.252;2023-07-09T02:39:28;95605.75;;;17.54;57.43
9261;BME280;4667;42.726;23.252;2023-07-09T02:41:54;95606.13;;;17.42;57.65
9261;BME280;4667;42.726;23.252;2023-07-09T02:44:21;95626.34;;;17.48;57.57
9261;BME280;4667;42.726;23.252;2023-07-09T02:46:48;95630.44;;;17.40;57.72
9261;BME280;4667;42.726;23.252;2023-07-09T02:49:16;95581.97;;;16.99;58.18
9261;BME280;4667;42.726;23.252;2023-07-09T02:51:43;95626.94;;;17.11;58.50
9261;BME280;4667;42.726;23.252;2023-07-09T02:54:09;95645.78;;;17.20;58.64
9261;BME280;4667;42.726;23.252;2023-07-09T02:56:36;95626.75;;;16.97;59.08
9261;BME280;4667;42.726;23.252;2023-07-09T02:59:03;95655.56;;;16.95;59.56
9261;BME280;4667;42.726;23.252;2023-07-09T03:01:30;95642.63;;;16.73;60.02
9261;BME280;4667;42.726;23.252;2023-07-09T03:03:59;95653.56;;;16.67;60.27
9261;BME280;4667;42.726;23.252;2023-07-09T03:06:29;95660.28;;;16.59;60.62
9261;BME280;4667;42.726;23.252;2023-07-09T03:08:58;95665.66;;;16.49;61.32
9261;BME280;4667;42.726;23.252;2023-07-09T03:11:28;95663.56;;;16.35;61.30
9261;BME280;4667;42.726;23.252;2023-07-09T03:13:55;95660.97;;;16.20;62.00
9261;BME280;4667;42.726;23.252;2023-07-09T03:16:22;95653.78;;;16.16;62.15
9261;BME280;4667;42.726;23.252;2023-07-09T03:18:49;95604.44;;;15.74;62.11
9261;BME280;4667;42.726;23.252;2023-07-09T03:21:15;95651.50;;;15.83;62.85
9261;BME280;4667;42.726;23.252;2023-07-09T03:23:44;95666.91;;;15.81;63.37
9261;BME280;4667;42.726;23.252;2023-07-09T03:26:11;95620.41;;;15.48;63.43
9261;BME280;4667;42.726;23.252;2023-07-09T03:28:37;95665.31;;;15.75;63.52
9261;BME280;4667;42.726;23.252;2023-07-09T03:31:04;95648.06;;;15.68;63.13
9261;BME280;4667;42.726;23.252;2023-07-09T03:33:31;95665.56;;;15.89;63.03
9261;BME280;4667;42.726;23.252;2023-07-09T03:35:58;95654.66;;;15.85;63.04
9261;BME280;4667;42.726;23.252;2023-07-09T03:38:25;95643.81;;;15.77;63.47
9261;BME280;4667;42.726;23.252;2023-07-09T03:40:53;95650.16;;;15.86;63.56
9261;BME280;4667;42.726;23.252;2023-07-09T03:43:21;95659.44;;;15.99;63.56
9261;BME280;4667;42.726;23.252;2023-07-09T03:45:49;95666.63;;;16.03;63.60
9261;BME280;4667;42.726;23.252;2023-07-09T03:48:18;95665.81;;;16.03;63.29
9261;BME280;4667;42.726;23.252;2023-07-09T03:50:46;95663.13;;;16.08;61.81
9261;BME280;4667;42.726;23.252;2023-07-09T03:53:14;95667.91;;;16.11;61.98
9261;BME280;4667;42.726;23.252;2023-07-09T03:55:42;95666.28;;;16.20;62.15
9261;BME280;4667;42.726;23.252;2023-07-09T03:58:10;95667.03;;;16.31;61.56
9261;BME280;4667;42.726;23.252;2023-07-09T04:00:36;95665.97;;;16.32;60.63
9261;BME280;4667;42.726;23.252;2023-07-09T04:03:03;95663.81;;;16.39;60.54
9261;BME280;4667;42.726;23.252;2023-07-09T04:05:34;95673.09;;;16.47;60.54
9261;BME280;4667;42.726;23.252;2023-07-09T04:08:00;95671.44;;;16.61;60.28
9261;BME280;4667;42.726;23.252;2023-07-09T04:10:27;95675.22;;;16.50;60.13
9261;BME280;4667;42.726;23.252;2023-07-09T04:12:54;95676.72;;;16.66;60.80
9261;BME280;4667;42.726;23.252;2023-07-09T04:15:22;95681.53;;;16.69;60.08
9261;BME280;4667;42.726;23.252;2023-07-09T04:17:48;95674.88;;;16.72;60.77
9261;BME280;4667;42.726;23.252;2023-07-09T04:20:15;95623.31;;;16.47;60.17
9261;BME280;4667;42.726;23.252;2023-07-09T04:22:42;95617.50;;;16.40;60.11
9261;BME280;4667;42.726;23.252;2023-07-09T04:25:09;95680.84;;;16.98;60.70
9261;BME280;4667;42.726;23.252;2023-07-09T04:27:37;95650.56;;;16.83;59.80
9261;BME280;4667;42.726;23.252;2023-07-09T04:30:05;95684.66;;;17.26;60.27
9261;BME280;4667;42.726;23.252;2023-07-09T04:32:33;95672.41;;;17.20;60.96
9261;BME280;4667;42.726;23.252;2023-07-09T04:35:03;95681.75;;;17.22;60.60
9261;BME280;4667;42.726;23.252;2023-07-09T04:37:31;95671.88;;;17.23;60.57
9261;BME280;4667;42.726;23.252;2023-07-09T04:39:57;95675.06;;;17.25;60.35
9261;BME280;4667;42.726;23.252;2023-07-09T04:42:24;95695.16;;;17.46;60.14
9261;BME280;4667;42.726;23.252;2023-07-09T04:44:51;95696.47;;;17.49;59.95
9261;BME280;4667;42.726;23.252;2023-07-09T04:47:17;95691.09;;;17.54;59.12
9261;BME280;4667;42.726;23.252;2023-07-09T04:49:45;95689.09;;;17.70;58.87
9261;BME280;4667;42.726;23.252;2023-07-09T04:52:12;95671.25;;;17.65;59.03
9261;BME280;4667;42.726;23.252;2023-07-09T04:54:41;95687.38;;;17.84;59.21
9261;BME280;4667;42.726;23.252;2023-07-09T04:57:09;95689.97;;;17.94;58.57
9261;BME280;4667;42.726;23.252;2023-07-09T04:59:35;95697.31;;;18.07;58.34
9261;BME280;4667;42.726;23.252;2023-07-09T05:02:03;95690.59;;;18.10;58.74
9261;BME280;4667;42.726;23.252;2023-07-09T05:04:30;95673.72;;;18.14;58.12
9261;BME280;4667;42.726;23.252;2023-07-09T05:06:58;95703.59;;;18.40;58.09
9261;BME280;4667;42.726;23.252;2023-07-09T05:09:25;95690.44;;;18.49;58.40
9261;BME280;4667;42.726;23.252;2023-07-09T05:11:52;95703.06;;;18.62;58.80
9261;BME280;4667;42.726;23.252;2023-07-09T05:14:19;95695.00;;;18.67;59.07
9261;BME280;4667;42.726;23.252;2023-07-09T05:16:46;95696.88;;;18.91;58.63
9261;BME280;4667;42.726;23.252;2023-07-09T05:19:12;95703.00;;;18.91;58.06
9261;BME280;4667;42.726;23.252;2023-07-09T05:21:40;95706.25;;;19.07;57.74
9261;BME280;4667;42.726;23.252;2023-07-09T05:24:08;95702.00;;;19.25;58.05
9261;BME280;4667;42.726;23.252;2023-07-09T05:26:35;95704.00;;;19.33;57.82
9261;BME280;4667;42.726;23.252;2023-07-09T05:29:02;95674.72;;;19.42;57.43
9261;BME280;4667;42.726;23.252;2023-07-09T05:31:30;95705.91;;;19.65;57.43
9261;BME280;4667;42.726;23.252;2023-07-09T05:33:57;95700.00;;;19.68;56.46
9261;BME280;4667;42.726;23.252;2023-07-09T05:36:23;95705.47;;;19.58;56.29
9261;BME280;4667;42.726;23.252;2023-07-09T05:38:50;95696.31;;;19.64;53.95
9261;BME280;4667;42.726;23.252;2023-07-09T05:41:18;95689.69;;;19.76;54.23
9261;BME280;4667;42.726;23.252;2023-07-09T05:43:45;95690.63;;;19.85;53.49
9261;BME280;4667;42.726;23.252;2023-07-09T05:46:13;95692.72;;;19.88;52.05
9261;BME280;4667;42.726;23.252;2023-07-09T05:48:40;95677.13;;;19.90;50.74
9261;BME280;4667;42.726;23.252;2023-07-09T05:51:06;95689.28;;;20.15;51.03
9261;BME280;4667;42.726;23.252;2023-07-09T05:53:33;95690.47;;;20.09;51.42
9261;BME280;4667;42.726;23.252;2023-07-09T05:56:00;95682.72;;;20.07;51.14
9261;BME280;4667;42.726;23.252;2023-07-09T05:58:30;95676.75;;;20.10;50.71
9261;BME280;4667;42.726;23.252;2023-07-09T06:00:57;95698.50;;;20.36;50.73
9261;BME280;4667;42.726;23.252;2023-07-09T06:03:25;95686.50;;;20.34;51.50
9261;BME280;4667;42.726;23.252;2023-07-09T06:05:52;95685.94;;;20.50;51.17
9261;BME280;4667;42.726;23.252;2023-07-09T06:08:19;95657.63;;;20.44;50.98
9261;BME280;4667;42.726;23.252;2023-07-09T06:10:53;95690.66;;;20.67;51.16
9261;BME280;4667;42.726;23.252;2023-07-09T06:13:21;95677.88;;;20.64;52.24
9261;BME280;4667;42.726;23.252;2023-07-09T06:15:51;95691.38;;;20.73;50.86
9261;BME280;4667;42.726;23.252;2023-07-09T06:18:19;95690.41;;;20.69;51.73
9261;BME280;4667;42.726;23.252;2023-07-09T06:20:47;95689.28;;;20.84;50.50
9261;BME280;4667;42.726;23.252;2023-07-09T06:23:14;95683.50;;;20.90;50.68
9261;BME280;4667;42.726;23.252;2023-07-09T06:25:40;95685.84;;;21.06;50.36
9261;BME280;4667;42.726;23.252;2023-07-09T06:28:07;95688.41;;;21.11;49.90
9261;BME280;4667;42.726;23.252;2023-07-09T06:30:35;95664.50;;;21.00;49.38
9261;BME280;4667;42.726;23.252;2023-07-09T06:33:03;95685.97;;;21.23;48.29
9261;BME280;4667;42.726;23.252;2023-07-09T06:35:30;95679.47;;;21.15;49.49
9261;BME280;4667;42.726;23.252;2023-07-09T06:37:56;95689.09;;;21.30;49.20
9261;BME280;4667;42.726;23.252;2023-07-09T06:40:23;95671.88;;;21.31;48.70
9261;BME280;4667;42.726;23.252;2023-07-09T06:42:50;95681.69;;;21.58;49.06
9261;BME280;4667;42.726;23.252;2023-07-09T06:45:17;95688.03;;;21.62;47.16
9261;BME280;4667;42.726;23.252;2023-07-09T06:47:43;95671.00;;;21.44;47.57
9261;BME280;4667;42.726;23.252;2023-07-09T06:50:12;95684.03;;;21.51;49.61
9261;BME280;4667;42.726;23.252;2023-07-09T06:52:39;95666.47;;;21.45;48.67
9261;BME280;4667;42.726;23.252;2023-07-09T06:55:06;95679.88;;;21.67;45.66
9261;BME280;4667;42.726;23.252;2023-07-09T06:57:33;95648.63;;;21.49;46.10
9261;BME280;4667;42.726;23.252;2023-07-09T07:00:00;95674.88;;;21.52;46.58
9261;BME280;4667;42.726;23.252;2023-07-09T07:02:26;95666.03;;;21.51;47.78
9261;BME280;4667;42.726;23.252;2023-07-09T07:04:53;95663.22;;;21.57;47.79
9261;BME280;4667;42.726;23.252;2023-07-09T07:07:22;95678.56;;;21.87;47.59
9261;BME280;4667;42.726;23.252;2023-07-09T07:09:49;95679.16;;;21.84;47.27
9261;BME280;4667;42.726;23.252;2023-07-09T07:12:23;95673.09;;;22.01;45.72
9261;BME280;4667;42.726;23.252;2023-07-09T07:14:50;95675.34;;;22.08;45.53
9261;BME280;4667;42.726;23.252;2023-07-09T07:17:17;95634.00;;;21.86;47.52
9261;BME280;4667;42.726;23.252;2023-07-09T07:19:44;95643.00;;;22.13;45.14
9261;BME280;4667;42.726;23.252;2023-07-09T07:22:11;95675.19;;;22.44;44.71
9261;BME280;4667;42.726;23.252;2023-07-09T07:24:39;95673.75;;;22.46;44.21
9261;BME280;4667;42.726;23.252;2023-07-09T07:27:07;95669.06;;;22.61;44.19
9261;BME280;4667;42.726;23.252;2023-07-09T07:29:34;95652.75;;;22.48;45.43
9261;BME280;4667;42.726;23.252;2023-07-09T07:32:01;95659.09;;;22.61;43.26
9261;BME280;4667;42.726;23.252;2023-07-09T07:34:28;95658.13;;;22.57;43.40
9261;BME280;4667;42.726;23.252;2023-07-09T07:36:55;95662.13;;;22.77;42.44
9261;BME280;4667;42.726;23.252;2023-07-09T07:39:22;95655.06;;;22.90;42.91
9261;BME280;4667;42.726;23.252;2023-07-09T07:41:50;95607.84;;;22.49;43.52
9261;BME280;4667;42.726;23.252;2023-07-09T07:44:17;95652.56;;;22.93;43.76
9261;BME280;4667;42.726;23.252;2023-07-09T07:46:44;95618.50;;;22.80;43.66
9261;BME280;4667;42.726;23.252;2023-07-09T07:49:11;95589.06;;;22.75;42.20
9261;BME280;4667;42.726;23.252;2023-07-09T07:51:38;95663.78;;;23.21;42.54
9261;BME280;4667;42.726;23.252;2023-07-09T07:54:05;95660.75;;;23.49;42.26
9261;BME280;4667;42.726;23.252;2023-07-09T07:56:34;95601.38;;;23.45;42.33
9261;BME280;4667;42.726;23.252;2023-07-09T07:59:02;95500.34;;;22.83;42.15
9261;BME280;4667;42.726;23.252;2023-07-09T08:01:29;95644.69;;;23.96;42.40
9261;BME280;4667;42.726;23.252;2023-07-09T08:03:56;95641.28;;;24.16;41.26
9261;BME280;4667;42.726;23.252;2023-07-09T08:06:23;95641.19;;;24.33;41.13
9261;BME280;4667;42.726;23.252;2023-07-09T08:08:49;95610.47;;;24.26;41.33
9261;BME280;4667;42.726;23.252;2023-07-09T08:11:16;95638.59;;;24.75;39.89
9261;BME280;4667;42.726;23.252;2023-07-09T08:13:43;95632.41;;;24.75;39.41
9261;BME280;4667;42.726;23.252;2023-07-09T08:16:11;95536.97;;;24.17;39.92
9261;BME280;4667;42.726;23.252;2023-07-09T08:18:38;95531.66;;;23.99;40.23
9261;BME280;4667;42.726;23.252;2023-07-09T08:21:05;95645.16;;;25.16;40.54
9261;BME280;4667;42.726;23.252;2023-07-09T08:23:35;95640.28;;;25.30;40.32
9261;BME280;4667;42.726;23.252;2023-07-09T08:26:02;95639.50;;;25.30;38.71
9261;BME280;4667;42.726;23.252;2023-07-09T08:28:30;95621.63;;;25.37;38.02
9261;BME280;4667;42.726;23.252;2023-07-09T08:30:57;95541.22;;;24.89;38.24
9261;BME280;4667;42.726;23.252;2023-07-09T08:33:25;95628.16;;;25.36;39.00
9261;BME280;4667;42.726;23.252;2023-07-09T08:35:53;95632.97;;;25.31;38.68
9261;BME280;4667;42.726;23.252;2023-07-09T08:38:20;95634.59;;;25.23;40.11
9261;BME280;4667;42.726;23.252;2023-07-09T08:40:56;95605.44;;;24.96;39.50
9261;BME280;4667;42.726;23.252;2023-07-09T08:43:39;95631.72;;;25.07;38.33
9261;BME280;4667;42.726;23.252;2023-07-09T08:46:18;95632.47;;;25.50;38.54
9261;BME280;4667;42.726;23.252;2023-07-09T08:48:49;95630.09;;;25.48;37.71
9261;BME280;4667;42.726;23.252;2023-07-09T08:51:22;95629.22;;;25.44;37.35
9261;BME280;4667;42.726;23.252;2023-07-09T08:53:54;95631.56;;;25.79;37.20
9261;BME280;4667;42.726;23.252;2023-07-09T08:56:24;95622.06;;;26.06;36.72
9261;BME280;4667;42.726;23.252;2023-07-09T08:58:55;95635.47;;;26.51;37.10
9261;BME280;4667;42.726;23.252;2023-07-09T09:01:24;95628.69;;;27.34;34.86
9261;BME280;4667;42.726;23.252;2023-07-09T09:03:58;95586.22;;;27.82;33.34
9261;BME280;4667;42.726;23.252;2023-07-09T09:06:28;95626.72;;;28.54;32.05
9261;BME280;4667;42.726;23.252;2023-07-09T09:09:03;95627.78;;;28.85;31.57
9261;BME280;4667;42.726;23.252;2023-07-09T09:11:39;95632.66;;;29.30;30.89
9261;BME280;4667;42.726;23.252;2023-07-09T09:14:18;95542.31;;;28.94;31.08
9261;BME280;4667;42.726;23.252;2023-07-09T09:16:46;95582.28;;;29.75;30.25
9261;BME280;4667;42.726;23.252;2023-07-09T09:19:22;95628.88;;;30.42;28.97
9261;BME280;4667;42.726;23.252;2023-07-09T09:21:53;95633.78;;;30.60;29.50
9261;BME280;4667;42.726;23.252;2023-07-09T09:24:27;95631.88;;;30.87;28.06
9261;BME280;4667;42.726;23.252;2023-07-09T09:26:57;95552.88;;;31.17;28.65
9261;BME280;4667;42.726;23.252;2023-07-09T09:29:25;95622.06;;;31.09;27.75
9261;BME280;4667;42.726;23.252;2023-07-09T09:31:54;95637.09;;;31.59;27.89
9261;BME280;4667;42.726;23.252;2023-07-09T09:34:25;95628.53;;;31.27;28.78
9261;BME280;4667;42.726;23.252;2023-07-09T09:36:53;95624.91;;;31.49;27.72
9261;BME280;4667;42.726;23.252;2023-07-09T09:39:20;95625.16;;;31.37;27.17
9261;BME280;4667;42.726;23.252;2023-07-09T09:41:52;95621.19;;;31.31;27.54
9261;BME280;4667;42.726;23.252;2023-07-09T09:44:23;95617.09;;;31.81;27.71
9261;BME280;4667;42.726;23.252;2023-07-09T09:46:51;95623.56;;;31.70;27.94
9261;BME280;4667;42.726;23.252;2023-07-09T09:49:18;95591.06;;;31.20;27.21
9261;BME280;4667;42.726;23.252;2023-07-09T09:51:47;95593.28;;;31.41;27.44
9261;BME280;4667;42.726;23.252;2023-07-09T09:54:17;95611.34;;;31.23;28.62
9261;BME280;4667;42.726;23.252;2023-07-09T09:56:45;95618.13;;;31.70;26.92
9261;BME280;4667;42.726;23.252;2023-07-09T09:59:18;95608.56;;;32.31;26.46
9261;BME280;4667;42.726;23.252;2023-07-09T10:01:46;95614.22;;;32.08;25.98
9261;BME280;4667;42.726;23.252;2023-07-09T10:04:17;95604.63;;;32.25;26.60
9261;BME280;4667;42.726;23.252;2023-07-09T10:06:49;95604.38;;;32.44;25.22
9261;BME280;4667;42.726;23.252;2023-07-09T10:09:24;95603.72;;;32.14;25.20
9261;BME280;4667;42.726;23.252;2023-07-09T10:11:58;95601.63;;;32.37;27.01
9261;BME280;4667;42.726;23.252;2023-07-09T10:14:33;95598.50;;;32.39;25.73
9261;BME280;4667;42.726;23.252;2023-07-09T10:17:09;95589.16;;;32.40;25.41
9261;BME280;4667;42.726;23.252;2023-07-09T10:19:46;95595.72;;;32.90;25.83
9261;BME280;4667;42.726;23.252;2023-07-09T10:22:23;95594.47;;;32.77;25.22
9261;BME280;4667;42.726;23.252;2023-07-09T10:24:57;95595.84;;;32.49;24.52
9261;BME280;4667;42.726;23.252;2023-07-09T10:27:32;95592.44;;;32.12;25.08
9261;BME280;4667;42.726;23.252;2023-07-09T10:30:17;95574.53;;;32.69;24.30
9261;BME280;4667;42.726;23.252;2023-07-09T10:32:56;95588.81;;;33.07;25.53
9261;BME280;4667;42.726;23.252;2023-07-09T10:35:30;95588.84;;;33.18;23.93
9261;BME280;4667;42.726;23.252;2023-07-09T10:38:25;95584.59;;;33.27;24.46
9261;BME280;4667;42.726;23.252;2023-07-09T10:40:59;95548.66;;;33.29;27.22
9261;BME280;4667;42.726;23.252;2023-07-09T10:43:33;95586.28;;;33.75;23.71
9261;BME280;4667;42.726;23.252;2023-07-09T10:46:05;95429.03;;;32.83;23.34
9261;BME280;4667;42.726;23.252;2023-07-09T10:48:38;95582.38;;;33.58;23.21
9261;BME280;4667;42.726;23.252;2023-07-09T10:51:16;95582.00;;;33.81;23.59
9261;BME280;4667;42.726;23.252;2023-07-09T10:53:48;95565.97;;;33.83;23.35
9261;BME280;4667;42.726;23.252;2023-07-09T10:56:20;95584.59;;;33.34;23.27
9261;BME280;4667;42.726;23.252;2023-07-09T10:58:53;95577.97;;;33.35;23.40
9261;BME280;4667;42.726;23.252;2023-07-09T11:01:28;95577.16;;;33.28;23.50
9261;BME280;4667;42.726;23.252;2023-07-09T11:04:00;95580.38;;;33.48;25.08
9261;BME280;4667;42.726;23.252;2023-07-09T11:06:32;95579.94;;;33.42;23.90
9261;BME280;4667;42.726;23.252;2023-07-09T11:09:04;95573.75;;;33.49;25.40
9261;BME280;4667;42.726;23.252;2023-07-09T11:11:35;95556.56;;;33.66;23.20
9261;BME280;4667;42.726;23.252;2023-07-09T11:14:21;95571.03;;;33.70;23.61
9261;BME280;4667;42.726;23.252;2023-07-09T11:16:53;95583.09;;;33.51;24.60
9261;BME280;4667;42.726;23.252;2023-07-09T11:19:22;95580.09;;;33.99;23.31
9261;BME280;4667;42.726;23.252;2023-07-09T11:22:12;95578.09;;;33.93;23.09
9261;BME280;4667;42.726;23.252;2023-07-09T11:24:47;95576.94;;;34.44;23.11
9261;BME280;4667;42.726;23.252;2023-07-09T11:27:22;95570.72;;;34.11;23.65
9261;BME280;4667;42.726;23.252;2023-07-09T11:29:57;95574.13;;;35.01;23.47
9261;BME280;4667;42.726;23.252;2023-07-09T11:32:24;95577.47;;;35.37;24.38
9261;BME280;4667;42.726;23.252;2023-07-09T11:34:51;95564.66;;;35.20;21.19
9261;BME280;4667;42.726;23.252;2023-07-09T11:37:17;95571.22;;;35.36;23.63
9261;BME280;4667;42.726;23.252;2023-07-09T11:39:47;95553.41;;;34.96;21.60
9261;BME280;4667;42.726;23.252;2023-07-09T11:42:29;95561.38;;;35.53;23.68
9261;BME280;4667;42.726;23.252;2023-07-09T11:45:05;95567.31;;;35.37;22.09
9261;BME280;4667;42.726;23.252;2023-07-09T11:47:37;95555.97;;;35.32;22.45
9261;BME280;4667;42.726;23.252;2023-07-09T11:50:13;95555.00;;;35.71;22.80
9261;BME280;4667;42.726;23.252;2023-07-09T11:52:47;95550.06;;;35.37;22.15
9261;BME280;4667;42.726;23.252;2023-07-09T11:55:21;95553.38;;;35.77;22.10
9261;BME280;4667;42.726;23.252;2023-07-09T11:57:53;95501.31;;;34.89;22.26
9261;BME280;4667;42.726;23.252;2023-07-09T12:00:20;95556.03;;;35.87;22.68
9261;BME280;4667;42.726;23.252;2023-07-09T12:02:46;95546.31;;;35.76;23.08
9261;BME280;4667;42.726;23.252;2023-07-09T12:05:14;95544.81;;;35.67;22.62
9261;BME280;4667;42.726;23.252;2023-07-09T12:07:45;95547.66;;;35.53;23.27
9261;BME280;4667;42.726;23.252;2023-07-09T12:10:20;95551.47;;;35.70;22.37
9261;BME280;4667;42.726;23.252;2023-07-09T12:12:48;95554.41;;;36.01;21.84
9261;BME280;4667;42.726;23.252;2023-07-09T12:15:24;95541.47;;;36.46;22.60
9261;BME280;4667;42.726;23.252;2023-07-09T12:17:59;95544.44;;;36.21;23.29
9261;BME280;4667;42.726;23.252;2023-07-09T12:20:26;95541.34;;;36.15;22.87
9261;BME280;4667;42.726;23.252;2023-07-09T12:22:55;95476.34;;;36.05;22.27
9261;BME280;4667;42.726;23.252;2023-07-09T12:25:24;95541.31;;;36.19;21.82
9261;BME280;4667;42.726;23.252;2023-07-09T12:27:52;95542.63;;;36.49;22.78
9261;BME280;4667;42.726;23.252;2023-07-09T12:30:19;95518.22;;;36.54;23.65
9261;BME280;4667;42.726;23.252;2023-07-09T12:32:47;95547.16;;;36.25;21.35
9261;BME280;4667;42.726;23.252;2023-07-09T12:35:17;95526.44;;;36.13;21.01
9261;BME280;4667;42.726;23.252;2023-07-09T12:37:46;95489.53;;;36.17;22.48
9261;BME280;4667;42.726;23.252;2023-07-09T12:40:16;95519.19;;;36.33;20.46
9261;BME280;4667;42.726;23.252;2023-07-09T12:42:44;95521.47;;;36.46;21.47
9261;BME280;4667;42.726;23.252;2023-07-09T12:45:16;95529.19;;;36.13;21.16
9261;BME280;4667;42.726;23.252;2023-07-09T12:47:44;95534.78;;;36.47;20.49
9261;BME280;4667;42.726;23.252;2023-07-09T12:50:21;95499.09;;;36.47;21.73
9261;BME280;4667;42.726;23.252;2023-07-09T12:52:49;95521.25;;;36.26;21.06
9261;BME280;4667;42.726;23.252;2023-07-09T12:55:20;95478.66;;;35.58;22.12
9261;BME280;4667;42.726;23.252;2023-07-09T12:57:49;95512.94;;;36.33;22.87
9261;BME280;4667;42.726;23.252;2023-07-09T13:00:17;95517.53;;;36.47;21.50
9261;BME280;4667;42.726;23.252;2023-07-09T13:02:44;95488.50;;;36.46;20.63
9261;BME280;4667;42.726;23.252;2023-07-09T13:05:18;95514.75;;;36.09;20.23
9261;BME280;4667;42.726;23.252;2023-07-09T13:07:48;95514.44;;;36.79;23.21
9261;BME280;4667;42.726;23.252;2023-07-09T13:10:17;95521.03;;;36.85;24.41
9261;BME280;4667;42.726;23.252;2023-07-09T13:12:46;95508.44;;;36.87;20.44
9261;BME280;4667;42.726;23.252;2023-07-09T13:15:27;95508.31;;;36.23;25.34
9261;BME280;4667;42.726;23.252;2023-07-09T13:17:59;95522.34;;;36.35;23.66
9261;BME280;4667;42.726;23.252;2023-07-09T13:20:26;95517.97;;;36.38;22.70